»·PEaware :: N30346 KBFL-KMHV

N30346 :: KBFL-KMHV

FLIGHT INFORMATION

Flight Status: Arrived
Operator: Privately registered:
United States
More flights under this callsign
Pilot: Brad C. (33254)
Aircraft: CESSNA 172 SKYHAWK
(C172)
More flights by this aircraft type
Origin: KBFL Meadows
United States
Destination: KMHV Mojave
United States
More flights between these airports :: More routes between these airports
Route:
File this flight plan on PilotEdge
Remarks:
Altitude:
(Current/Filed)
7,500ft
Speed:
(Current/Filed)
100kts
Departed: 08-Nov-23 04:37 PM
Arrived: 08-Nov-23 05:10 PM
Distance/Time
Traveled:
49nm/0:33
Distance/Time
To Go:
Arrived

Flight Plot

Page will automatically refresh every two minutes.


Map Options




Map Legend


Flown Route
Filed Route
Departure Airport
Arrival Airport
Navaid (VOR, NDB)
Fix

Horizontal Profiles

Position Reports

Time Latitude Longitude Heading Altitude Ground
Speed
08-Nov-23 15:59 34.900720 -120.451575 228 265ft 0kts
08-Nov-23 16:00 34.900720 -120.451575 228 265ft 0kts
08-Nov-23 16:01 34.900720 -120.451575 228 265ft 0kts
08-Nov-23 16:02 34.900720 -120.451575 228 265ft 0kts
08-Nov-23 16:03 34.900720 -120.451575 228 265ft 0kts
08-Nov-23 16:04 34.900720 -120.451575 228 265ft 0kts
08-Nov-23 16:05 34.900720 -120.451575 228 265ft 0kts
08-Nov-23 16:06 34.900720 -120.451575 228 265ft 0kts
08-Nov-23 16:07 34.900720 -120.451575 228 265ft 0kts
08-Nov-23 16:08 34.900720 -120.451575 228 265ft 0kts
08-Nov-23 16:09 34.900720 -120.451575 228 265ft 0kts
08-Nov-23 16:10 34.900720 -120.451575 228 265ft 0kts
08-Nov-23 16:11 34.900720 -120.451575 228 265ft 0kts
08-Nov-23 16:12 34.900720 -120.451575 228 265ft 0kts
08-Nov-23 16:13 34.900720 -120.451575 228 265ft 0kts
08-Nov-23 16:14 34.900720 -120.451575 228 265ft 0kts
08-Nov-23 16:15 34.900720 -120.451575 228 265ft 0kts
08-Nov-23 16:16 34.900720 -120.451575 228 265ft 0kts
08-Nov-23 16:17 34.900720 -120.451575 228 265ft 0kts
08-Nov-23 16:18 35.437117 -119.055150 89 500ft 0kts
08-Nov-23 16:19 35.437117 -119.055150 89 500ft 0kts
08-Nov-23 16:20 35.437117 -119.055150 89 500ft 0kts
08-Nov-23 16:20 35.437117 -119.055150 89 500ft 0kts
08-Nov-23 16:21 35.437117 -119.055150 89 500ft 0kts
08-Nov-23 16:23 35.437117 -119.055150 89 500ft 0kts
08-Nov-23 16:24 35.437117 -119.055150 89 500ft 0kts
08-Nov-23 16:25 35.437117 -119.055150 89 500ft 0kts
08-Nov-23 16:25 35.437117 -119.055150 89 500ft 0kts
08-Nov-23 16:26 35.437117 -119.055150 89 500ft 0kts
08-Nov-23 16:27 35.437117 -119.055150 89 500ft 0kts
08-Nov-23 16:29 35.437117 -119.055150 89 500ft 0kts
08-Nov-23 16:29 35.437008 -119.054997 168 500ft 2kts
08-Nov-23 16:30 35.434219 -119.054392 136 492ft 16kts
08-Nov-23 16:31 35.431210 -119.050767 133 493ft 19kts
08-Nov-23 16:32 35.427172 -119.045873 135 484ft 16kts
08-Nov-23 16:33 35.425827 -119.045027 225 479ft 0kts
08-Nov-23 16:34 35.425827 -119.045027 225 479ft 0kts
08-Nov-23 16:35 35.425909 -119.046550 311 477ft 34kts
08-Nov-23 16:36 35.439617 -119.063756 314 963ft 75kts
08-Nov-23 16:37 35.455879 -119.075227 42 1575ft 74kts
08-Nov-23 16:38 35.444775 -119.061729 185 2150ft 75kts
08-Nov-23 16:39 35.429549 -119.045394 116 2710ft 77kts
08-Nov-23 16:40 35.419556 -119.021970 116 3253ft 78kts
08-Nov-23 16:41 35.409767 -118.998124 116 3788ft 78kts
08-Nov-23 16:42 35.400057 -118.974265 116 4306ft 78kts
08-Nov-23 16:43 35.390215 -118.950325 116 4786ft 79kts
08-Nov-23 16:44 35.380323 -118.926161 116 5248ft 79kts
08-Nov-23 16:45 35.370362 -118.901840 116 5687ft 80kts
08-Nov-23 16:46 35.360103 -118.876772 116 5998ft 94kts
08-Nov-23 16:47 35.346564 -118.843758 116 5988ft 116kts
08-Nov-23 16:48 35.331994 -118.807996 113 5987ft 118kts
08-Nov-23 16:49 35.318431 -118.771280 111 5997ft 118kts
08-Nov-23 16:50 35.303906 -118.735296 117 6008ft 118kts
08-Nov-23 16:51 35.291294 -118.698237 107 6017ft 118kts
08-Nov-23 16:52 35.280758 -118.660227 115 6025ft 118kts
08-Nov-23 16:53 35.261450 -118.627841 129 6031ft 118kts
08-Nov-23 16:54 35.243358 -118.594315 124 6042ft 118kts
08-Nov-23 16:55 35.224251 -118.561693 126 6051ft 118kts
08-Nov-23 16:56 35.203321 -118.530864 133 6058ft 117kts
08-Nov-23 16:57 35.180336 -118.502241 135 6061ft 118kts
08-Nov-23 16:58 35.160621 -118.470357 119 6071ft 118kts
08-Nov-23 16:59 35.146398 -118.434240 114 6083ft 118kts
08-Nov-23 17:00 35.134201 -118.397068 109 6093ft 118kts
08-Nov-23 17:01 35.122856 -118.359501 110 6102ft 118kts
08-Nov-23 17:02 35.111600 -118.321854 110 6113ft 117kts
08-Nov-23 17:03 35.095096 -118.287441 131 5537ft 116kts
08-Nov-23 17:04 35.073679 -118.270339 154 4814ft 90kts
08-Nov-23 17:05 35.061232 -118.250944 112 3987ft 71kts
08-Nov-23 17:06 35.059093 -118.227160 89 3802ft 72kts
08-Nov-23 17:07 35.059286 -118.202790 91 3582ft 72kts
08-Nov-23 17:08 35.059212 -118.177875 89 3055ft 75kts
08-Nov-23 17:09 35.059222 -118.159613 88 2768ft 26kts
08-Nov-23 17:10 35.058358 -118.157830 182 2765ft 0kts
08-Nov-23 17:11 35.058287 -118.157832 181 2765ft 5kts
08-Nov-23 17:12 35.057244 -118.157984 277 2763ft 0kts
08-Nov-23 17:13 35.057244 -118.158025 272 2763ft 0kts

Navigation Log

Ident Type
Flight plan parsing failed, navigation log unavailable